This is the latest recevied weather packets stored in our database for station/object SP9MLI-1. If no packets are shown the sender has not sent any weather packets the latest 10 day(s).
| Time | Temp. | Humidity | Pressure | Rain* | Wind** | Luminosity | Snow |
|---|---|---|---|---|---|---|---|
| 1778267292 | 8.89° C | 83% | 1020.4 hPa | 0 mm | - | - | - |
| 1778266433 | 8.89° C | 82% | 1020.4 hPa | 0 mm | - | - | - |
| 1778266392 | 8.89° C | 82% | 1020.4 hPa | 0 mm | - | - | - |
| 1778265493 | 8.89° C | 81% | 1020.4 hPa | 0 mm | - | - | - |
| 1778264592 | 8.89° C | 79% | 1020.4 hPa | 0 mm | - | - | - |
| 1778263692 | 9.44° C | 78% | 1020.1 hPa | 0 mm | - | - | - |
| 1778262792 | 11.11° C | 73% | 1020.4 hPa | 0 mm | - | - | - |
| 1778261896 | 11.11° C | 73% | 1020.4 hPa | 0 mm | - | - | - |
| 1778260992 | 11.11° C | 73% | 1020.4 hPa | 0 mm | - | - | - |
| 1778260092 | 11.11° C | 73% | 1020.4 hPa | 0 mm | - | - | - |
| 1778259252 | 11.11° C | 73% | 1020.4 hPa | 0 mm | - | - | - |
| 1778259193 | 11.11° C | 73% | 1020.4 hPa | 0 mm | - | - | - |
| 1778258292 | 11.11° C | 73% | 1020.4 hPa | 0 mm | - | - | - |
| 1778249294 | 12.78° C | 64% | 1022.5 hPa | 0 mm | - | - | - |
| 1778248394 | 12.78° C | 64% | 1022.5 hPa | 0 mm | - | - | - |
| 1778246593 | 12.78° C | 64% | 1022.5 hPa | 0 mm | - | - | - |
| 1778244933 | 12.78° C | 66% | 1022.5 hPa | 0 mm | - | - | - |
| 1778244793 | 12.78° C | 66% | 1022.5 hPa | 0 mm | - | - | - |
| 1778243075 | 11.11° C | 67% | 1021.8 hPa | 0 mm | - | - | - |
| 1778242993 | 11.11° C | 67% | 1021.8 hPa | 0 mm | - | - | - |
| 1778234957 | 11.67° C | 67% | 1021.1 hPa | 0 mm | - | - | - |
| 1778234893 | 11.67° C | 67% | 1021.1 hPa | 0 mm | - | - | - |
| 1778234046 | 11.67° C | 67% | 1021.1 hPa | 0 mm | - | - | - |
| 1778233993 | 11.67° C | 67% | 1021.1 hPa | 0 mm | - | - | - |
| 1778233093 | 11.67° C | 67% | 1021.1 hPa | 0 mm | - | - | - |
* Rain latest hour (hover to see other rain measurements)
** Current wind speed in m/s (hover to see current wind gust speed)